Reinbeck, IA (50669)

10:06 PM CDT on July 23, 2016 (GMT -0500)
Hicks | | Change Station

Elev 958 ft 42.36 °N, 92.52 °W | Updated 1 minute ago

Clear
Clear
76.0 °F
Feels Like 75 °F
N
7.0
Wind Variable Wind from ESE
Gusts 9.0 mph

Today
High -- | Low -- °F
--% Chance of Precip.
Yesterday
High -- | Low -- °F
Precip. -- in
Pressure 29.79 in
Visibility 10.0 miles
Clouds Clear
Heat Index 75 °F
Dew Point 75 °F
Humidity 96%
Rainfall 0.17 in
Snow Depth Not available.
5:54 AM 8:38 PM
Waning Gibbous, 80% visible
METAR KALO 240254Z AUTO 15010KT 10SM CLR 24/22 A2981 RMK AO2 SLP088 T02440222 55002
Pressure 29.79 in
Visibility 10.0 miles
Clouds Clear
Heat Index 75 °F
Dew Point 75 °F
Humidity 96%
Rainfall 0.17 in
Snow Depth Not available.
5:54 AM 8:38 PM
Waning Gibbous, 80% visible
METAR KALO 240254Z AUTO 15010KT 10SM CLR 24/22 A2981 RMK AO2 SLP088 T02440222 55002

10-Day Weather Forecast

Almanac

Astronomy

Jul. 23, 2016 Rise Set
Actual Time
Civil Twilight
Nautical Twilight
Astronomical Twilight
Moon
Length of Visible Light
Length of Day
Tomorrow will be .
, % of the Moon is Illuminated

Today's Extremes

State Highs State Lows

Community

WunderPhotos

Upload Photos

1,927,016 photos uploaded!

WunderBlog® & News

Nearby

Air Quality

  Air Quality AQ Index Pollutant
Not available.

Snow Depth

Station Depth Elevation

Earthquake Activity

City Distance Mag. Time & Date
Minimum magnitude displayed is 2.5.

Coastal Water Temperatures

Place Temperature

Stations

Nearby Weather Stations

Station Location Temp. Windchill Dew Point Humidity Wind Precip. Elev Updated Type
                   

Watches & Warnings

There are currently no watches in effect.